createdAt,value
2022-11-22T00:00:20.082Z,168.73
2022-11-22T00:03:09.531Z,183.80
2022-11-22T00:05:38.842Z,133.95
2022-11-22T00:08:08.513Z,139.88
2022-11-22T00:10:39.261Z,164.85
2022-11-22T00:13:08.376Z,132.57
2022-11-22T00:15:37.928Z,116.68
2022-11-22T00:18:07.123Z,114.40
2022-11-22T00:20:37.273Z,108.03
2022-11-22T00:23:06.408Z,116.93
2022-11-22T00:25:35.798Z,120.35
2022-11-22T00:28:06.427Z,123.07
2022-11-22T00:30:35.883Z,121.65
2022-11-22T00:33:05.099Z,126.13
2022-11-22T00:35:34.514Z,128.98
2022-11-22T00:38:03.521Z,143.30
2022-11-22T00:40:32.856Z,116.80
2022-11-22T00:43:01.933Z,121.72
2022-11-22T00:45:32.724Z,122.22
2022-11-22T00:48:01.947Z,120.82
2022-11-22T00:50:31.492Z,107.95
2022-11-22T00:53:00.626Z,114.07
2022-11-22T00:55:29.953Z,111.13
2022-11-22T00:57:59.110Z,119.63
2022-11-22T01:00:28.619Z,117.00
2022-11-22T01:02:59.106Z,131.30
2022-11-22T01:05:28.696Z,116.35
2022-11-22T01:07:57.824Z,112.90
2022-11-22T01:10:27.157Z,113.35
2022-11-22T01:12:58.045Z,113.13
2022-11-22T01:15:27.504Z,109.50
2022-11-22T01:17:56.514Z,119.97
2022-11-22T01:20:27.407Z,109.03
2022-11-22T01:22:56.467Z,108.70
2022-11-22T01:25:25.957Z,98.85
2022-11-22T01:27:55.259Z,114.90
2022-11-22T01:30:24.692Z,117.20
2022-11-22T01:32:53.762Z,116.13
2022-11-22T01:35:23.478Z,113.70
2022-11-22T01:37:53.862Z,101.05
2022-11-22T01:40:23.458Z,102.38
2022-11-22T01:42:54.532Z,100.80
2022-11-22T01:45:46.047Z,93.97
2022-11-22T01:48:24.988Z,103.88
2022-11-22T01:50:59.168Z,106.70
2022-11-22T01:53:33.673Z,105.70
2022-11-22T01:56:06.810Z,105.88
2022-11-22T01:58:38.447Z,110.82
2022-11-22T02:01:08.858Z,101.85
2022-11-22T02:03:40.713Z,108.53
2022-11-22T02:06:10.399Z,111.38
2022-11-22T02:08:48.414Z,117.60
2022-11-22T02:11:19.210Z,112.05
2022-11-22T02:13:48.875Z,107.97
2022-11-22T02:16:18.286Z,114.13
2022-11-22T02:18:47.399Z,104.78
2022-11-22T02:21:16.737Z,114.88
2022-11-22T02:24:00.818Z,121.20
2022-11-22T02:26:32.536Z,101.65
2022-11-22T02:29:07.853Z,112.72
2022-11-22T02:31:42.538Z,113.85
2022-11-22T02:34:12.736Z,102.80
2022-11-22T02:36:46.999Z,108.00
2022-11-22T02:39:19.481Z,110.70
2022-11-22T02:41:51.560Z,113.22
2022-11-22T02:44:21.875Z,106.03
2022-11-22T02:46:53.998Z,116.90
2022-11-22T02:49:26.200Z,105.88
2022-11-22T02:51:55.591Z,107.60
2022-11-22T02:54:24.673Z,106.90
2022-11-22T02:56:55.425Z,111.65
2022-11-22T02:59:24.455Z,101.03
2022-11-22T03:01:55.608Z,107.63
2022-11-22T03:04:27.777Z,108.60
2022-11-22T03:06:58.706Z,108.60
2022-11-22T03:09:29.187Z,102.68
2022-11-22T03:12:00.291Z,102.13
2022-11-22T03:14:29.382Z,97.45
2022-11-22T03:16:58.745Z,93.47
2022-11-22T03:19:28.111Z,105.28
2022-11-22T03:21:57.634Z,110.47
2022-11-22T03:24:26.902Z,101.10
2022-11-22T03:26:56.375Z,105.20
2022-11-22T03:29:27.060Z,104.28
2022-11-22T03:36:42.748Z,110.25
2022-11-22T03:39:11.889Z,98.65
2022-11-22T03:41:41.364Z,105.93
2022-11-22T03:44:10.563Z,101.13
2022-11-22T03:46:41.330Z,114.50
2022-11-22T03:49:11.959Z,117.10
2022-11-22T03:51:41.394Z,107.55
2022-11-22T03:54:10.596Z,107.75
2022-11-22T03:56:40.108Z,121.70
2022-11-22T03:59:09.200Z,114.57
2022-11-22T04:01:38.625Z,105.45
2022-11-22T04:04:09.126Z,100.63
2022-11-22T04:06:42.898Z,106.25
2022-11-22T04:09:12.297Z,105.97
2022-11-22T04:11:41.655Z,115.45
2022-11-22T04:14:30.547Z,114.35
2022-11-22T04:17:00.027Z,113.00
2022-11-22T04:19:30.697Z,111.25
2022-11-22T04:21:59.115Z,116.30
2022-11-22T04:24:45.248Z,109.28
2022-11-22T04:27:14.667Z,108.90
2022-11-22T04:29:43.747Z,107.80
2022-11-22T04:32:30.994Z,100.93
2022-11-22T04:35:01.455Z,112.22
2022-11-22T04:37:30.803Z,104.28
2022-11-22T04:39:59.794Z,113.18
2022-11-22T04:42:46.676Z,116.88
2022-11-22T04:45:15.689Z,101.93
2022-11-22T04:48:00.454Z,111.80
2022-11-22T04:50:49.192Z,105.72
2022-11-22T04:53:19.974Z,95.63
2022-11-22T04:55:49.581Z,136.43
2022-11-22T04:58:19.073Z,127.63
2022-11-22T05:00:48.545Z,105.18
2022-11-22T05:03:18.406Z,109.43
2022-11-22T05:05:48.812Z,107.00
2022-11-22T05:08:18.420Z,118.35
2022-11-22T05:10:57.956Z,112.30
2022-11-22T05:13:30.123Z,115.57
2022-11-22T05:16:00.443Z,115.85
2022-11-22T05:18:31.547Z,131.85
2022-11-22T05:21:06.319Z,105.68
2022-11-22T05:23:53.217Z,102.82
2022-11-22T05:26:25.719Z,112.75
2022-11-22T05:28:56.910Z,105.60
2022-11-22T05:31:27.932Z,117.50
2022-11-22T05:33:58.623Z,109.45
2022-11-22T05:36:29.143Z,112.35
2022-11-22T05:38:58.613Z,107.32
2022-11-22T05:41:27.735Z,108.05
2022-11-22T05:43:57.426Z,109.15
2022-11-22T05:46:28.714Z,109.97
2022-11-22T05:48:59.651Z,103.13
2022-11-22T05:51:34.653Z,110.88
2022-11-22T05:56:33.625Z,111.68
2022-11-22T05:59:03.118Z,116.80
2022-11-22T06:01:32.136Z,122.70
2022-11-22T06:04:02.853Z,101.30
2022-11-22T06:06:33.556Z,114.53
2022-11-22T06:09:02.885Z,109.18
2022-11-22T06:11:31.973Z,104.93
2022-11-22T06:14:03.518Z,118.22
2022-11-22T06:16:32.896Z,119.47
2022-11-22T06:19:02.351Z,112.07
2022-11-22T06:21:32.874Z,102.22
2022-11-22T06:24:02.257Z,118.65
2022-11-22T06:26:36.104Z,123.53
2022-11-22T06:29:08.620Z,126.78
2022-11-22T06:34:15.247Z,129.13
2022-11-22T06:36:45.007Z,127.50
2022-11-22T06:39:14.608Z,135.77
2022-11-22T06:41:44.184Z,133.38
2022-11-22T06:44:13.224Z,149.50
2022-11-22T06:46:42.622Z,118.95
2022-11-22T06:49:11.897Z,106.47
2022-11-22T06:51:42.617Z,107.40
2022-11-22T06:54:12.664Z,125.55
2022-11-22T06:56:42.695Z,106.50
2022-11-22T06:59:12.068Z,105.53
2022-11-22T07:01:41.557Z,117.00
2022-11-22T07:04:11.248Z,123.43
2022-11-22T07:06:44.201Z,121.45
2022-11-22T07:09:13.617Z,108.13
2022-11-22T07:11:43.174Z,121.80
2022-11-22T07:14:12.296Z,107.38
2022-11-22T07:16:41.671Z,115.22
2022-11-22T07:19:11.110Z,120.63
2022-11-22T07:21:42.084Z,112.07
2022-11-22T07:24:11.224Z,122.00
2022-11-22T07:26:40.732Z,117.03
2022-11-22T07:29:09.998Z,122.03
2022-11-22T07:31:39.368Z,114.32
2022-11-22T07:34:08.482Z,111.65
2022-11-22T07:36:37.895Z,116.10
2022-11-22T07:39:08.450Z,134.07
2022-11-22T07:41:37.784Z,114.95
2022-11-22T07:44:06.971Z,125.20
2022-11-22T07:46:36.392Z,129.13
2022-11-22T07:49:05.438Z,129.05
2022-11-22T07:51:34.687Z,140.60
2022-11-22T07:54:03.832Z,127.28
2022-11-22T07:56:35.525Z,117.88
2022-11-22T07:59:04.790Z,131.25
2022-11-22T08:01:34.194Z,137.70
2022-11-22T08:04:03.313Z,125.53
2022-11-22T08:06:32.732Z,136.20
2022-11-22T08:09:02.427Z,137.05
2022-11-22T08:11:33.284Z,142.13
2022-11-22T08:14:02.335Z,150.32
2022-11-22T08:16:31.847Z,133.23
2022-11-22T08:19:00.981Z,140.63
2022-11-22T08:21:30.334Z,154.10
2022-11-22T08:24:00.359Z,128.10
2022-11-22T17:00:43.142Z,74.03
2022-11-22T17:03:19.570Z,73.38
2022-11-22T17:05:49.519Z,78.03
2022-11-22T17:08:20.803Z,73.97
2022-11-22T17:10:51.889Z,81.45
2022-11-22T17:13:25.483Z,80.55
2022-11-22T17:15:57.278Z,72.38
2022-11-22T17:47:59.174Z,83.07
2022-11-22T17:50:28.683Z,62.90
2022-11-22T17:52:57.904Z,80.03
2022-11-22T17:55:42.702Z,62.55
2022-11-22T17:58:16.642Z,65.88
2022-11-22T18:00:45.973Z,70.40
2022-11-22T18:03:16.408Z,76.30
2022-11-22T18:05:45.756Z,66.78
2022-11-22T18:08:14.862Z,57.22
2022-11-22T18:10:44.277Z,65.15
2022-11-22T18:13:22.325Z,70.90
2022-11-22T18:16:00.090Z,66.78
2022-11-22T18:18:55.644Z,74.75
2022-11-22T18:21:24.438Z,68.20
2022-11-22T18:23:53.989Z,77.35
2022-11-22T18:26:38.751Z,71.28
2022-11-22T18:29:39.026Z,85.43
2022-11-22T18:31:59.250Z,89.38
2022-11-22T18:34:30.627Z,75.13
2022-11-22T18:37:03.554Z,78.75
2022-11-22T18:39:36.556Z,84.63
2022-11-22T18:42:07.916Z,82.55
2022-11-22T18:44:37.050Z,74.97
2022-11-22T18:47:06.515Z,70.95
2022-11-22T18:49:37.565Z,73.35
2022-11-22T18:52:08.785Z,69.90
2022-11-22T18:54:39.909Z,84.90
2022-11-22T18:57:09.234Z,65.47
2022-11-22T18:59:38.342Z,61.70
2022-11-22T19:02:08.909Z,62.65
2022-11-22T19:04:39.485Z,64.32
2022-11-22T19:07:09.140Z,66.03
2022-11-22T19:09:38.210Z,74.82
2022-11-22T19:12:07.937Z,63.50
2022-11-22T19:14:37.221Z,64.85
2022-11-22T19:17:09.034Z,65.35
2022-11-22T19:19:39.492Z,76.70
2022-11-22T19:22:08.819Z,68.90
2022-11-22T19:24:37.882Z,85.05
2022-11-22T19:27:07.353Z,76.53
2022-11-22T19:29:36.685Z,69.25
2022-11-22T19:32:06.432Z,68.20
2022-11-22T19:34:35.603Z,63.45
2022-11-22T19:37:06.833Z,67.40
2022-11-22T19:39:36.250Z,73.65
2022-11-22T19:42:05.875Z,70.78
2022-11-22T19:44:37.936Z,67.55
2022-11-22T19:47:07.554Z,81.18
2022-11-22T19:49:36.586Z,70.22
2022-11-22T19:52:07.477Z,74.05
2022-11-22T19:54:36.563Z,57.85
2022-11-22T19:57:06.067Z,56.38
2022-11-22T19:59:36.061Z,68.82
2022-11-22T20:02:05.697Z,62.42
2022-11-22T20:04:34.823Z,64.20
2022-11-22T20:07:04.809Z,60.63
2022-11-22T20:09:38.116Z,64.40
2022-11-22T20:12:07.599Z,52.60
2022-11-22T20:14:36.697Z,64.63
2022-11-22T20:17:06.071Z,85.20
2022-11-22T20:19:35.404Z,90.13
2022-11-22T20:22:04.860Z,71.15
2022-11-22T20:24:35.411Z,69.50
2022-11-22T20:27:05.340Z,60.45
2022-11-22T20:29:34.440Z,62.03
2022-11-22T20:32:03.852Z,60.38
2022-11-22T20:34:34.192Z,58.00
2022-11-22T20:37:03.884Z,55.17
2022-11-22T20:39:36.454Z,55.42
2022-11-22T20:42:33.017Z,55.20
2022-11-22T20:44:55.312Z,65.15
2022-11-22T20:47:24.730Z,58.30
2022-11-22T20:49:53.830Z,54.25
2022-11-22T20:52:23.297Z,53.15
2022-11-22T20:54:53.969Z,55.58
2022-11-22T20:57:23.579Z,62.55
2022-11-22T20:59:52.671Z,65.50
2022-11-22T21:02:22.005Z,58.35
2022-11-22T21:04:51.188Z,71.82
2022-11-22T21:07:20.540Z,57.47
2022-11-22T21:09:49.797Z,65.40
2022-11-22T21:12:20.475Z,61.30
2022-11-22T21:14:53.596Z,61.45
2022-11-22T21:17:45.595Z,85.07
2022-11-22T21:20:13.498Z,79.82
2022-11-22T21:22:43.084Z,75.00
2022-11-22T21:25:12.385Z,70.72
2022-11-22T21:27:43.258Z,53.97
2022-11-22T21:30:13.443Z,66.72
2022-11-22T21:32:42.950Z,63.88
2022-11-22T21:35:12.772Z,66.85
2022-11-22T21:37:42.615Z,69.05
2022-11-22T21:40:13.132Z,63.03
2022-11-22T21:42:44.678Z,72.20
2022-11-22T21:45:13.806Z,65.18
2022-11-22T21:47:43.221Z,59.70
2022-11-22T21:50:13.149Z,54.33
2022-11-22T21:52:43.430Z,60.42
2022-11-22T21:55:13.125Z,48.63
2022-11-22T21:57:43.936Z,59.58
2022-11-22T22:00:14.473Z,59.15
2022-11-22T22:02:43.956Z,67.95
2022-11-22T22:05:13.682Z,62.60
2022-11-22T22:07:52.481Z,54.92
2022-11-22T22:10:22.381Z,56.30
2022-11-22T22:12:53.960Z,58.15
2022-11-22T22:15:23.075Z,54.90
2022-11-22T22:17:54.661Z,57.92
2022-11-22T22:20:24.157Z,60.45
2022-11-22T22:22:54.807Z,51.30
2022-11-22T22:25:24.145Z,53.78
2022-11-22T22:27:57.096Z,54.13
2022-11-22T22:30:26.433Z,61.42
2022-11-22T22:32:55.822Z,66.28
2022-11-22T22:35:24.934Z,59.10
2022-11-22T22:37:54.389Z,64.78
2022-11-22T22:40:23.653Z,65.63
2022-11-22T22:42:54.475Z,61.35
2022-11-22T22:45:23.675Z,61.63
2022-11-22T22:47:53.152Z,72.72
2022-11-22T22:50:22.230Z,72.50
2022-11-22T22:52:51.737Z,66.68
2022-11-22T22:55:20.896Z,83.22
2022-11-22T22:57:50.276Z,71.10
2022-11-22T23:00:22.159Z,70.80
2022-11-22T23:02:51.573Z,62.63
2022-11-22T23:05:21.106Z,71.13
2022-11-22T23:07:50.510Z,60.55
2022-11-22T23:10:19.688Z,62.63
2022-11-22T23:12:49.048Z,67.43
2022-11-22T23:15:28.451Z,71.72
2022-11-22T23:18:09.125Z,65.45
2022-11-22T23:20:38.192Z,62.60
2022-11-22T23:23:07.645Z,67.90
2022-11-22T23:25:36.734Z,59.45
2022-11-22T23:28:06.234Z,61.33
2022-11-22T23:30:35.356Z,55.47
2022-11-22T23:33:04.959Z,58.28
2022-11-22T23:35:37.805Z,69.20
2022-11-22T23:38:07.113Z,62.08
2022-11-22T23:40:36.253Z,56.53
2022-11-22T23:43:05.727Z,54.75
2022-11-22T23:45:34.844Z,60.85
2022-11-22T23:48:04.316Z,72.60
2022-11-22T23:50:37.501Z,61.08
2022-11-22T23:53:07.039Z,55.33
2022-11-22T23:55:36.346Z,65.72
2022-11-22T23:58:05.863Z,51.30
